RJAN(METAR)
06/28 16:00
RJAN 280700Z 08003KT 9999 FEW010 BKNXXX 23/21 Q1012 RMK A2991=
戻る
トップページへ戻る
IMOC Co,.Ltd.